Weather History for KW43 - October, 2013

Change the Weather History Date:

Wednesday, October 16, 2013

  Actual Average (KRAP) Record (KRAP)
Temperature  
Mean Temperature 38 °F 48 °F  
Max Temperature 51 °F 61 °F 91 °F (1991)
Min Temperature 26 °F 34 °F 14 °F (1992)
Degree Days  
Heating Degree Days 26 17  
Month to date heating degree days 232  
Since 1 July heating degree days 456  
Cooling Degree Days 0 0  
Month to date cooling degree days 0  
Year to date cooling degree days 633  
Moisture  
Dew Point 28 °F    
Average Humidity 69    
Maximum Humidity 93    
Minimum Humidity 35    
Precipitation  
Precipitation 0.00 in 0.05 in 1.44 in (1998)
Month to date precipitation 0.84  
Year to date precipitation 14.76  
Snow  
Snow 0.00 in 0.00 in - ()
Month to date snowfall 0.4  
Since 1 July snowfall 0.6  
Since 1 September snowfall 0.6  
Snow Depth -    
Sea Level Pressure  
Sea Level Pressure 30.03 in    
Wind  
Wind Speed 8 mph (WSW)    
Max Wind Speed 14 mph    
Max Gust Speed 17 mph    
Visibility 10 miles    
Events      
T = Trace of Precipitation, MM = Missing Value Source: NWS Daily Summary

Daily Weather History Graph

Daily Weather History Graph

Search for Another Location

Airport or City:

Trip Planner

Search our weather history database for the weather conditions in past years. The results will help you decide how hot, cold, wet, or windy it might be!

Date:

Astronomy

Oct. 16, 2013 Rise Set
Actual Time 7:15 AM MDT 6:11 PM MDT
Civil Twilight 6:45 AM MDT 6:40 PM MDT
Nautical Twilight 6:11 AM MDT 7:14 PM MDT
Astronomical Twilight 5:38 AM MDT 7:48 PM MDT
Moon 4:56 PM MDT (10/16) 4:40 AM MDT (10/16)
Length of Visible Light 11h 55m
Length of Day
10h 56m
Waxing Gibbous, 94% of the Moon is Illuminated
Oct 16
Waxing Gibbous
Oct 18
Full
Oct 26
Last Quarter
Nov 3
New
Nov 9
First Quarter

Hourly Weather History & Observations

Time (MDT) Temp. Windchill Dew Point Humidity Pressure Visibility Wind Dir Wind Speed Gust Speed Precip Events Conditions
12:15 AM 30.2 °F 22.6 °F 26.6 °F 86% 30.14 in 10.0 mi SSW 8.1 mph - N/A   Clear
12:35 AM 30.2 °F 24.3 °F 26.6 °F 86% 30.14 in 10.0 mi SSW 5.8 mph - N/A   Clear
12:55 AM 30.2 °F 23.4 °F 26.6 °F 86% 30.13 in 10.0 mi South 6.9 mph - N/A   Clear
1:15 AM 28.4 °F 21.2 °F 24.8 °F 86% 30.13 in 10.0 mi SSW 6.9 mph - N/A   Clear
1:35 AM 30.2 °F 22.6 °F 26.6 °F 86% 30.13 in 10.0 mi SSW 8.1 mph - N/A   Clear
1:55 AM 30.2 °F 22.6 °F 26.6 °F 86% 30.12 in 10.0 mi SSW 8.1 mph - N/A   Clear
2:15 AM 28.4 °F 19.7 °F 24.8 °F 86% 30.11 in 10.0 mi SSW 9.2 mph - N/A   Clear
2:35 AM 30.2 °F 21.9 °F 26.6 °F 86% 30.10 in 10.0 mi SSW 9.2 mph - N/A   Clear
2:55 AM 28.4 °F 19.7 °F 24.8 °F 86% 30.10 in 10.0 mi SSW 9.2 mph - N/A   Clear
3:15 AM 28.4 °F 20.4 °F 26.6 °F 93% 30.09 in 10.0 mi SSW 8.1 mph - N/A   Clear
3:35 AM 30.2 °F 24.3 °F 26.6 °F 86% 30.09 in 10.0 mi SW 5.8 mph - N/A   Clear
3:55 AM 30.2 °F 24.3 °F 26.6 °F 86% 30.08 in 10.0 mi SW 5.8 mph - N/A   Clear
4:15 AM 28.4 °F 19.7 °F 24.8 °F 86% 30.08 in 10.0 mi SSW 9.2 mph - N/A   Clear
4:35 AM 28.4 °F 20.4 °F 26.6 °F 93% 30.08 in 10.0 mi SSW 8.1 mph - N/A   Clear
4:55 AM 28.4 °F 19.7 °F 23.0 °F 80% 30.06 in 10.0 mi SSW 9.2 mph - N/A   Clear
5:15 AM 28.4 °F 19.7 °F 24.8 °F 86% 30.06 in 10.0 mi SSW 9.2 mph - N/A   Clear
5:35 AM 30.2 °F 23.4 °F 24.8 °F 80% 30.06 in 10.0 mi SW 6.9 mph - N/A   Clear
5:55 AM 30.2 °F 20.2 °F 26.6 °F 86% 30.04 in 10.0 mi SSW 12.7 mph - N/A   Clear
6:15 AM 30.2 °F 20.8 °F 24.8 °F 80% 30.04 in 10.0 mi SSW 11.5 mph - N/A   Clear
6:35 AM 30.2 °F 22.6 °F 26.6 °F 86% 30.04 in 10.0 mi SW 8.1 mph - N/A   Clear
6:55 AM 30.2 °F 24.3 °F 24.8 °F 80% 30.04 in 10.0 mi SW 5.8 mph - N/A   Clear
7:15 AM 26.6 °F 18.2 °F 23.0 °F 86% 30.03 in 10.0 mi SW 8.1 mph - N/A   Clear
7:35 AM 26.6 °F 19.1 °F 23.0 °F 86% 30.03 in 10.0 mi SW 6.9 mph - N/A   Clear
7:55 AM 28.4 °F 24.6 °F 23.0 °F 80% 30.04 in 10.0 mi West 3.5 mph - N/A   Clear
8:15 AM 32.0 °F 24.8 °F 26.6 °F 80% 30.04 in 10.0 mi SW 8.1 mph - N/A   Clear
8:35 AM 33.8 °F 25.8 °F 26.6 °F 75% 30.04 in 10.0 mi SW 10.4 mph - N/A   Clear
8:55 AM 33.8 °F 26.4 °F 26.6 °F 75% 30.04 in 10.0 mi SW 9.2 mph - N/A   Clear
9:15 AM 33.8 °F 27.0 °F 28.4 °F 81% 30.04 in 10.0 mi SW 8.1 mph - N/A   Clear
9:35 AM 35.6 °F 27.5 °F 28.4 °F 75% 30.04 in 10.0 mi SW 11.5 mph - N/A   Clear
9:55 AM 35.6 °F 28.0 °F 28.4 °F 75% 30.04 in 10.0 mi SW 10.4 mph - N/A   Clear
10:15 AM 37.4 °F 32.1 °F 30.2 °F 75% 30.05 in 10.0 mi SW 6.9 mph - N/A   Clear
10:35 AM 39.2 °F 32.0 °F 30.2 °F 70% 30.04 in 10.0 mi SW 11.5 mph - N/A   Clear
10:55 AM 41.0 °F 35.2 °F 28.4 °F 61% 30.04 in 10.0 mi SW 9.2 mph - N/A   Clear
11:15 AM 41.0 °F 33.5 °F 28.4 °F 61% 30.03 in 10.0 mi SW 13.8 mph - N/A   Clear
11:35 AM 41.0 °F 34.7 °F 28.4 °F 61% 30.03 in 10.0 mi SW 10.4 mph - N/A   Clear
11:55 AM 42.8 °F 35.8 °F 28.4 °F 57% 30.03 in 10.0 mi SSW 13.8 mph - N/A   Clear
12:15 PM 42.8 °F 37.0 °F 30.2 °F 61% 30.03 in 10.0 mi SSW 10.4 mph - N/A   Clear
12:35 PM 42.8 °F 37.0 °F 30.2 °F 61% 30.01 in 10.0 mi SSW 10.4 mph - N/A   Clear
12:55 PM 44.6 °F 40.2 °F 30.2 °F 57% 30.01 in 10.0 mi SSW 8.1 mph - N/A   Clear
1:15 PM 46.4 °F 41.5 °F 28.4 °F 50% 30.00 in 10.0 mi WSW 10.4 mph - N/A   Clear
1:35 PM 46.4 °F 41.1 °F 30.2 °F 53% 29.99 in 10.0 mi SW 11.5 mph - N/A   Clear
1:55 PM 46.4 °F 41.1 °F 30.2 °F 53% 29.99 in 10.0 mi SW 11.5 mph - N/A   Clear
2:15 PM 48.2 °F - 30.2 °F 50% 29.98 in 10.0 mi SW 8.1 mph - N/A   Clear
2:35 PM 50.0 °F - 30.2 °F 47% 29.97 in 10.0 mi WSW 6.9 mph - N/A   Clear
2:55 PM 50.0 °F - 30.2 °F 47% 29.97 in 10.0 mi SW 9.2 mph - N/A   Clear
3:15 PM 51.8 °F - 28.4 °F 41% 29.97 in 10.0 mi West 9.2 mph - N/A   Clear
3:35 PM 51.8 °F - 24.8 °F 35% 29.97 in 10.0 mi West 10.4 mph 17.3 mph N/A   Clear
3:55 PM 51.8 °F - 26.6 °F 38% 29.97 in 10.0 mi West 12.7 mph - N/A   Clear
4:15 PM 51.8 °F - 26.6 °F 38% 29.97 in 10.0 mi West 6.9 mph - N/A   Clear
4:35 PM 50.0 °F - 26.6 °F 40% 29.97 in 10.0 mi WNW 8.1 mph - N/A   Clear
4:55 PM 50.0 °F - 28.4 °F 43% 29.97 in 10.0 mi WNW 6.9 mph - N/A   Clear
5:15 PM 50.0 °F - 28.4 °F 43% 29.97 in 10.0 mi West 6.9 mph - N/A   Clear
5:35 PM 48.2 °F - 28.4 °F 46% 29.97 in 10.0 mi West 3.5 mph - N/A   Clear
5:55 PM 46.4 °F 44.3 °F 28.4 °F 50% 29.97 in 10.0 mi West 4.6 mph - N/A   Clear
6:15 PM 46.4 °F 45.2 °F 28.4 °F 50% 29.97 in 10.0 mi WNW 3.5 mph - N/A   Clear
6:35 PM 44.6 °F 42.2 °F 28.4 °F 53% 29.98 in 10.0 mi WNW 4.6 mph - N/A   Clear
6:55 PM 44.6 °F 43.1 °F 28.4 °F 53% 29.99 in 10.0 mi WNW 3.5 mph - N/A   Clear
7:35 PM 44.6 °F 43.1 °F 28.4 °F 53% 29.99 in 10.0 mi West 3.5 mph - N/A   Clear
7:55 PM 42.8 °F 40.1 °F 28.4 °F 57% 30.00 in 10.0 mi WNW 4.6 mph - N/A   Clear
8:15 PM 42.8 °F 41.1 °F 28.4 °F 57% 30.00 in 10.0 mi WNW 3.5 mph - N/A   Clear
8:35 PM 41.0 °F 39.0 °F 28.4 °F 61% 30.01 in 10.0 mi WNW 3.5 mph - N/A   Clear
8:55 PM 41.0 °F 36.4 °F 30.2 °F 65% 30.03 in 10.0 mi NNW 6.9 mph - N/A   Clear
9:15 PM 41.0 °F 36.4 °F 30.2 °F 65% 30.03 in 10.0 mi NW 6.9 mph - N/A   Clear
9:35 PM 41.0 °F 34.7 °F 32.0 °F 70% 30.03 in 10.0 mi NNW 10.4 mph 17.3 mph N/A   Clear
9:55 PM 41.0 °F 34.7 °F 32.0 °F 70% 30.05 in 10.0 mi NW 10.4 mph - N/A   Scattered Clouds
10:15 PM 41.0 °F 35.8 °F 32.0 °F 70% 30.05 in 10.0 mi NW 8.1 mph - N/A   Overcast
10:35 PM 39.2 °F 35.0 °F 33.8 °F 81% 30.05 in 10.0 mi West 5.8 mph - N/A   Overcast
10:55 PM 39.2 °F - 33.8 °F 81% 30.04 in 10.0 mi Calm Calm - N/A   Overcast
11:15 PM 39.2 °F - 32.0 °F 75% 30.04 in 10.0 mi Calm Calm - N/A   Overcast
11:35 PM 39.2 °F 35.0 °F 33.8 °F 81% 30.04 in 10.0 mi West 5.8 mph - N/A   Overcast
11:55 PM 39.2 °F 33.0 °F 33.8 °F 81% 30.04 in 10.0 mi WNW 9.2 mph - N/A   Drizzle